Time;durP1;ratioP1;P1;durP2;ratioP2;P2;SDS_P1;SDS_P2;PMS_P1;PMS_P2;Temp;Humidity;BMP_temperature;BMP_pressure;BME280_temperature;BME280_humidity;BME280_pressure;Samples;Min_cycle;Max_cycle;Signal;HPM_P1;HPM_P2
2023/12/01 00:02:10;;;;;;;32.50;16.10;;;-2.70;1.00;;;;;;5113585;27;20176;-50
2023/12/01 00:04:36;;;;;;;31.37;16.60;;;-2.70;1.00;;;;;;5108886;27;20585;-50
2023/12/01 00:07:02;;;;;;;33.90;17.57;;;-2.70;1.00;;;;;;5111959;28;20200;-50
2023/12/01 00:09:28;;;;;;;30.53;16.10;;;-2.80;1.00;;;;;;5108457;27;20975;-50
2023/12/01 00:11:53;;;;;;;34.23;17.50;;;-2.80;1.00;;;;;;5108843;28;20233;-50
2023/12/01 00:14:19;;;;;;;33.10;16.13;;;-2.90;1.00;;;;;;5112481;27;20545;-50
2023/12/01 00:16:44;;;;;;;34.80;16.73;;;-3.00;1.00;;;;;;5114523;27;20240;-50
2023/12/01 00:19:10;;;;;;;34.47;16.33;;;-3.00;1.00;;;;;;5112856;28;20227;-51
2023/12/01 00:21:35;;;;;;;33.00;16.00;;;-3.10;15.20;;;;;;5108501;27;20644;-50
2023/12/01 00:24:01;;;;;;;36.77;17.43;;;-3.10;66.90;;;;;;5107622;27;20708;-51
2023/12/01 00:26:27;;;;;;;29.40;16.20;;;-3.20;99.90;;;;;;5105352;28;20502;-50
2023/12/01 00:28:52;;;;;;;37.80;17.93;;;-3.20;99.90;;;;;;5092311;28;20195;-50
2023/12/01 00:31:18;;;;;;;35.00;18.23;;;-3.20;99.90;;;;;;5106994;28;20192;-51
2023/12/01 00:33:43;;;;;;;32.43;16.47;;;-3.30;99.90;;;;;;5102333;28;20194;-51
2023/12/01 00:36:09;;;;;;;34.40;17.87;;;-3.40;99.90;;;;;;5110008;28;20198;-50
2023/12/01 00:38:35;;;;;;;41.43;18.57;;;-3.40;99.90;;;;;;5106942;28;20297;-51
2023/12/01 00:41:00;;;;;;;35.53;17.90;;;-3.50;99.90;;;;;;5109177;28;20323;-50
2023/12/01 00:43:26;;;;;;;35.73;16.80;;;-3.60;99.90;;;;;;5103369;28;20263;-50
2023/12/01 00:45:52;;;;;;;38.17;18.50;;;-3.60;99.90;;;;;;5111416;28;20185;-50
2023/12/01 00:48:17;;;;;;;38.17;17.50;;;-3.70;99.90;;;;;;5106166;28;20189;-50
2023/12/01 00:50:43;;;;;;;36.50;18.00;;;-3.80;1.00;;;;;;5104029;28;20197;-50
2023/12/01 00:53:09;;;;;;;36.30;17.70;;;-3.80;1.00;;;;;;5097737;28;20192;-51
2023/12/01 00:55:35;;;;;;;35.43;17.23;;;-3.90;1.00;;;;;;5104734;28;20278;-50
2023/12/01 00:58:01;;;;;;;39.97;17.93;;;-3.90;1.00;;;;;;5103361;28;20281;-50
2023/12/01 01:00:27;;;;;;;43.90;18.20;;;-4.00;1.00;;;;;;5107413;28;20994;-51
2023/12/01 01:02:52;;;;;;;48.13;17.97;;;-4.00;99.90;;;;;;5105785;28;20452;-50
2023/12/01 01:05:18;;;;;;;38.80;18.27;;;-4.00;1.00;;;;;;5098390;28;20759;-50
2023/12/01 01:07:44;;;;;;;40.03;17.87;;;-4.00;1.00;;;;;;5112916;28;20185;-50
2023/12/01 01:10:10;;;;;;;39.53;17.53;;;-4.10;1.00;;;;;;5100717;28;20427;-50
2023/12/01 01:12:35;;;;;;;35.70;16.23;;;-4.10;1.00;;;;;;5105946;28;20232;-50
2023/12/01 01:15:04;;;;;;;39.70;17.90;;;-4.10;1.00;;;;;;5104314;28;20665;-50
2023/12/01 01:17:31;;;;;;;33.30;16.77;;;-4.20;1.00;;;;;;5103881;28;20562;-50
2023/12/01 01:19:58;;;;;;;35.17;17.67;;;-4.20;1.00;;;;;;5106404;28;20437;-50
2023/12/01 01:22:24;;;;;;;34.13;16.47;;;-4.20;1.00;;;;;;5107556;28;20433;-50
2023/12/01 01:24:50;;;;;;;34.80;17.07;;;-4.30;1.00;;;;;;5107386;27;20517;-50
2023/12/01 01:27:16;;;;;;;32.63;15.47;;;-4.30;99.90;;;;;;5109353;27;20536;-50
2023/12/01 01:29:41;;;;;;;35.67;15.93;;;-4.40;99.90;;;;;;5109870;27;20197;-50
2023/12/01 01:32:07;;;;;;;31.50;16.20;;;-4.40;1.00;;;;;;5108056;27;20189;-50
2023/12/01 01:34:32;;;;;;;41.00;18.00;;;-4.50;1.00;;;;;;5107464;27;20198;-50
2023/12/01 01:36:58;;;;;;;32.10;16.47;;;-4.50;99.90;;;;;;5110495;27;20187;-50
2023/12/01 01:39:23;;;;;;;37.67;18.33;;;-4.50;99.90;;;;;;5106132;27;20194;-50
2023/12/01 01:41:49;;;;;;;39.47;18.40;;;-4.50;77.40;;;;;;5112720;27;20216;-50
2023/12/01 01:44:15;;;;;;;33.57;16.77;;;-4.60;30.00;;;;;;5113628;27;20273;-50
2023/12/01 01:46:41;;;;;;;38.40;16.83;;;-4.60;99.90;;;;;;5110970;27;20275;-50
2023/12/01 01:49:06;;;;;;;37.60;18.30;;;-4.60;99.90;;;;;;5112155;27;20439;-50
2023/12/01 01:51:34;;;;;;;41.43;18.50;;;-4.70;99.90;;;;;;5114947;27;20185;-50
2023/12/01 01:54:00;;;;;;;34.60;16.20;;;-4.70;1.00;;;;;;5108871;27;20233;-50
2023/12/01 01:56:28;;;;;;;38.60;16.90;;;-4.70;1.00;;;;;;5115371;27;20438;-50
2023/12/01 01:58:54;;;;;;;39.40;17.90;;;-4.70;99.90;;;;;;5108481;27;20566;-50
2023/12/01 02:01:19;;;;;;;41.33;18.20;;;-4.70;99.90;;;;;;5111607;27;20518;-50
2023/12/01 02:03:45;;;;;;;40.80;17.70;;;-4.70;99.90;;;;;;5110103;27;20597;-50
2023/12/01 02:06:12;;;;;;;39.57;17.10;;;-4.80;99.90;;;;;;5110719;27;20586;-50
2023/12/01 02:08:39;;;;;;;37.20;17.00;;;-4.80;1.00;;;;;;5109423;27;20443;-50
2023/12/01 02:11:04;;;;;;;37.27;18.67;;;-4.80;99.90;;;;;;5105607;27;20445;-50
2023/12/01 02:13:30;;;;;;;38.97;17.90;;;-4.80;1.00;;;;;;5106742;27;20529;-50
2023/12/01 02:15:56;;;;;;;33.93;17.30;;;-4.80;1.00;;;;;;5106401;27;20284;-51
2023/12/01 02:18:31;;;;;;;41.27;19.13;;;-4.80;1.00;;;;;;5114079;27;20603;-50
2023/12/01 02:20:58;;;;;;;46.80;19.93;;;-4.80;22.70;;;;;;5110720;27;20443;-50
2023/12/01 02:23:24;;;;;;;46.10;20.30;;;-4.80;99.90;;;;;;5105716;27;20944;-50
2023/12/01 02:25:50;;;;;;;46.70;19.87;;;-4.90;1.00;;;;;;5111727;27;20458;-50
2023/12/01 02:28:16;;;;;;;42.13;19.00;;;-4.90;1.00;;;;;;5116736;27;20211;-50
2023/12/01 02:30:50;;;;;;;38.60;19.47;;;-5.00;99.90;;;;;;5121276;27;20519;-50
2023/12/01 02:33:16;;;;;;;41.73;19.20;;;-5.00;99.90;;;;;;5105278;27;20438;-50
2023/12/01 02:35:52;;;;;;;42.17;17.83;;;-5.00;99.90;;;;;;5111102;27;20485;-49
2023/12/01 02:38:18;;;;;;;37.03;17.70;;;-5.00;1.00;;;;;;5113093;27;20562;-50
2023/12/01 02:40:49;;;;;;;42.70;18.67;;;-5.00;1.00;;;;;;5107572;27;20450;-50
2023/12/01 02:43:15;;;;;;;41.60;19.20;;;-5.10;1.00;;;;;;5106644;27;20965;-50
2023/12/01 02:45:41;;;;;;;41.20;18.07;;;-5.10;1.00;;;;;;5111581;27;20419;-50
2023/12/01 02:48:07;;;;;;;40.50;18.23;;;-5.10;99.90;;;;;;5114288;27;20438;-50
2023/12/01 02:50:33;;;;;;;32.27;16.47;;;-5.20;99.90;;;;;;5113740;27;20214;-51
2023/12/01 02:53:00;;;;;;;38.03;18.10;;;-5.20;99.90;;;;;;5110309;27;20219;-50
2023/12/01 02:55:25;;;;;;;38.37;17.90;;;-5.20;99.90;;;;;;5109702;27;20433;-50
2023/12/01 02:57:51;;;;;;;37.70;17.83;;;-5.20;1.00;;;;;;5111201;27;20475;-50
2023/12/01 03:00:17;;;;;;;39.87;18.87;;;-5.20;63.90;;;;;;5106760;27;20189;-50
2023/12/01 03:02:43;;;;;;;38.53;18.13;;;-5.20;99.90;;;;;;5112328;27;20187;-50
2023/12/01 03:05:10;;;;;;;40.47;18.40;;;-5.20;99.90;;;;;;5104827;27;20281;-50
2023/12/01 03:07:36;;;;;;;37.90;17.97;;;-5.20;99.90;;;;;;5109510;27;20440;-50
2023/12/01 03:10:03;;;;;;;37.20;18.80;;;-5.20;99.90;;;;;;5114756;27;21241;-50
2023/12/01 03:12:29;;;;;;;38.37;17.20;;;-5.20;89.80;;;;;;5114892;27;20434;-50
2023/12/01 03:14:54;;;;;;;37.20;18.50;;;-5.20;99.90;;;;;;5112060;27;20445;-51
2023/12/01 03:17:23;;;;;;;43.27;17.83;;;-5.20;99.90;;;;;;5111032;27;20222;-50
2023/12/01 03:19:49;;;;;;;40.40;18.70;;;-5.20;99.90;;;;;;5117674;27;20196;-50
2023/12/01 03:22:15;;;;;;;43.63;19.43;;;-5.20;99.90;;;;;;5110102;27;20429;-50
2023/12/01 03:24:44;;;;;;;43.47;20.37;;;-5.10;1.00;;;;;;5111348;27;20991;-50
2023/12/01 03:27:10;;;;;;;43.40;19.30;;;-5.00;7.30;;;;;;5114769;27;20200;-50
2023/12/01 03:29:37;;;;;;;48.63;21.63;;;-4.90;1.00;;;;;;5107665;27;20436;-51
2023/12/01 03:32:04;;;;;;;49.67;19.50;;;-4.90;1.00;;;;;;5104255;27;20191;-50
2023/12/01 03:34:30;;;;;;;50.13;20.37;;;-4.80;1.00;;;;;;5104183;27;20434;-51
2023/12/01 03:36:56;;;;;;;50.83;21.93;;;-4.80;99.90;;;;;;5110085;27;20424;-50
2023/12/01 03:39:21;;;;;;;53.30;23.23;;;-4.70;99.90;;;;;;5110319;27;20426;-51
2023/12/01 03:41:50;;;;;;;59.97;23.93;;;-4.70;99.90;;;;;;5108290;27;20655;-50
2023/12/01 03:44:15;;;;;;;51.47;22.87;;;-4.60;99.90;;;;;;5109845;27;20191;-50
2023/12/01 03:46:42;;;;;;;48.53;23.03;;;-4.60;99.90;;;;;;5109965;27;20430;-50
2023/12/01 03:49:07;;;;;;;51.93;23.20;;;-4.60;99.90;;;;;;5106174;27;20187;-51
2023/12/01 03:51:35;;;;;;;52.13;24.13;;;-4.50;1.00;;;;;;5112794;27;20434;-51
2023/12/01 03:54:00;;;;;;;55.87;24.77;;;-4.50;1.00;;;;;;5106478;27;20183;-50
2023/12/01 03:56:26;;;;;;;51.87;23.10;;;-4.50;1.00;;;;;;5110555;27;20838;-50
2023/12/01 03:58:54;;;;;;;50.80;23.40;;;-4.40;1.00;;;;;;5108597;27;20229;-50
2023/12/01 04:01:20;;;;;;;56.37;24.80;;;-4.40;1.00;;;;;;5107327;27;20216;-51
2023/12/01 04:03:46;;;;;;;50.23;23.67;;;-4.30;7.80;;;;;;5102383;27;20494;-50
2023/12/01 04:06:11;;;;;;;49.17;23.33;;;-4.30;99.90;;;;;;5108630;27;20859;-49
2023/12/01 04:08:37;;;;;;;54.93;24.10;;;-4.30;1.00;;;;;;5109428;27;20196;-50
2023/12/01 04:11:03;;;;;;;53.83;23.50;;;-4.20;1.00;;;;;;5109389;27;20192;-50
2023/12/01 04:13:28;;;;;;;58.27;24.10;;;-4.20;1.00;;;;;;5101471;27;20186;-50
2023/12/01 04:15:54;;;;;;;52.03;23.87;;;-4.10;1.00;;;;;;5095619;27;20438;-50
2023/12/01 04:18:21;;;;;;;59.70;25.17;;;-4.10;1.00;;;;;;5112479;27;20721;-50
2023/12/01 04:20:47;;;;;;;48.40;24.40;;;-4.00;1.00;;;;;;5106647;28;20799;-50
2023/12/01 04:23:14;;;;;;;57.90;24.83;;;-4.10;1.00;;;;;;5108720;27;20454;-50
2023/12/01 04:25:46;;;;;;;52.93;22.90;;;-4.10;99.90;;;;;;5107101;27;20184;-50
2023/12/01 04:28:13;;;;;;;52.83;25.00;;;-4.20;1.00;;;;;;5109057;27;20477;-51
2023/12/01 04:30:39;;;;;;;55.00;24.60;;;-4.20;14.00;;;;;;5115370;27;20429;-50
2023/12/01 04:33:05;;;;;;;58.70;25.10;;;-4.10;99.90;;;;;;5105458;27;20938;-50
2023/12/01 04:35:32;;;;;;;57.80;24.03;;;-4.20;1.00;;;;;;5104326;28;20451;-51
2023/12/01 04:37:59;;;;;;;52.93;24.00;;;-4.10;1.00;;;;;;5111249;28;20223;-51
2023/12/01 04:40:29;;;;;;;56.77;24.37;;;-4.10;99.90;;;;;;5115174;28;20432;-50
2023/12/01 04:42:56;;;;;;;56.83;23.67;;;-4.10;92.40;;;;;;5105980;28;20520;-50
2023/12/01 04:45:25;;;;;;;56.73;24.17;;;-4.10;99.90;;;;;;5108768;28;20466;-50
2023/12/01 04:47:53;;;;;;;55.63;24.20;;;-4.10;1.00;;;;;;5109824;28;20423;-50
2023/12/01 04:50:24;;;;;;;58.20;26.20;;;-4.00;99.90;;;;;;5108489;28;20705;-50
2023/12/01 04:52:52;;;;;;;57.50;25.83;;;-4.00;99.90;;;;;;5107201;28;20438;-50
2023/12/01 04:55:19;;;;;;;60.23;24.63;;;-4.00;72.70;;;;;;5107900;28;20781;-50
2023/12/01 04:57:45;;;;;;;68.53;26.07;;;-4.00;24.00;;;;;;5112148;27;21115;-50
2023/12/01 05:00:22;;;;;;;60.20;26.50;;;-4.00;1.00;;;;;;5113686;27;20974;-50
2023/12/01 05:02:55;;;;;;;53.97;23.50;;;-4.00;1.00;;;;;;5114454;27;20468;-51
2023/12/01 05:05:23;;;;;;;64.30;25.50;;;-4.00;1.00;;;;;;5108495;27;20929;-50
2023/12/01 05:07:50;;;;;;;57.33;23.63;;;-4.00;1.00;;;;;;5113513;27;20429;-50
2023/12/01 05:10:20;;;;;;;57.10;23.33;;;-4.10;99.90;;;;;;5113869;27;20924;-50
2023/12/01 05:12:49;;;;;;;47.77;23.23;;;-4.10;99.90;;;;;;5107019;27;20479;-50
2023/12/01 05:15:15;;;;;;;61.17;26.80;;;-4.10;1.00;;;;;;5115876;27;20516;-50
2023/12/01 05:17:43;;;;;;;59.60;24.10;;;-4.10;78.80;;;;;;5115250;27;20542;-50
2023/12/01 05:20:15;;;;;;;61.00;27.47;;;-4.10;99.90;;;;;;5116563;27;20589;-51
2023/12/01 05:22:51;;;;;;;65.60;24.57;;;-4.10;99.90;;;;;;5118696;27;20517;-50
2023/12/01 05:25:18;;;;;;;59.87;24.07;;;-4.10;1.00;;;;;;5110603;27;20420;-50
2023/12/01 05:27:46;;;;;;;54.43;23.07;;;-4.10;1.00;;;;;;5109177;27;20434;-50
2023/12/01 05:30:13;;;;;;;58.40;23.37;;;-4.10;1.00;;;;;;5111434;27;20439;-51
2023/12/01 05:32:40;;;;;;;54.60;23.97;;;-4.10;1.00;;;;;;5109817;27;20441;-50
2023/12/01 05:35:10;;;;;;;55.60;24.17;;;-4.10;1.00;;;;;;5105916;27;20443;-50
2023/12/01 05:37:37;;;;;;;52.17;22.93;;;-4.00;1.00;;;;;;5105827;27;20485;-50
2023/12/01 05:40:03;;;;;;;54.33;21.53;;;-4.10;20.70;;;;;;5107299;27;20527;-50
2023/12/01 05:42:29;;;;;;;46.33;21.40;;;-4.00;99.90;;;;;;5111102;27;20439;-51
2023/12/01 05:44:54;;;;;;;52.63;20.80;;;-4.00;99.90;;;;;;5116951;27;20440;-50
2023/12/01 05:47:22;;;;;;;46.07;21.30;;;-4.00;1.00;;;;;;5114772;27;20631;-51
2023/12/01 05:49:48;;;;;;;45.60;20.27;;;-4.00;99.90;;;;;;5112879;27;20197;-51
2023/12/01 05:52:15;;;;;;;43.87;19.60;;;-3.90;1.00;;;;;;5114977;27;20426;-50
2023/12/01 05:54:40;;;;;;;46.30;19.97;;;-4.00;99.90;;;;;;5107289;27;20446;-50
2023/12/01 05:57:06;;;;;;;53.83;20.40;;;-4.00;1.00;;;;;;5113826;27;20290;-51
2023/12/01 05:59:32;;;;;;;52.27;21.90;;;-3.90;1.00;;;;;;5107826;27;20322;-51
2023/12/01 06:01:59;;;;;;;47.43;20.77;;;-4.00;1.00;;;;;;5115232;27;20192;-51
2023/12/01 06:04:25;;;;;;;43.47;19.50;;;-3.90;1.00;;;;;;5108931;27;20446;-50
2023/12/01 06:06:51;;;;;;;50.53;20.60;;;-3.90;1.00;;;;;;5108577;27;20462;-50
2023/12/01 06:09:17;;;;;;;47.47;20.33;;;-3.90;3.20;;;;;;5110952;27;21030;-50
2023/12/01 06:11:45;;;;;;;51.43;20.03;;;-3.80;1.00;;;;;;5114096;27;20200;-50
2023/12/01 06:14:11;;;;;;;50.50;20.60;;;-3.70;54.50;;;;;;5115819;27;20430;-50
2023/12/01 06:16:37;;;;;;;45.37;19.00;;;-3.80;99.90;;;;;;5110385;27;20427;-50
2023/12/01 06:19:02;;;;;;;49.73;19.37;;;-3.80;9.10;;;;;;5108760;27;20520;-50
2023/12/01 06:21:28;;;;;;;54.20;21.77;;;-3.80;1.00;;;;;;5111566;27;20190;-50
2023/12/01 06:23:53;;;;;;;50.90;21.00;;;-3.90;1.00;;;;;;5115451;27;20220;-50
2023/12/01 06:26:19;;;;;;;46.67;19.33;;;-3.90;1.00;;;;;;5111716;27;20184;-50
2023/12/01 06:28:44;;;;;;;56.00;21.87;;;-3.80;1.00;;;;;;5109506;27;20191;-50
2023/12/01 06:31:10;;;;;;;49.97;20.67;;;-3.80;1.00;;;;;;5100850;27;20210;-49
2023/12/01 06:33:36;;;;;;;44.73;19.20;;;-3.80;1.00;;;;;;5102932;27;20291;-50
2023/12/01 06:36:01;;;;;;;43.87;19.33;;;-3.90;99.90;;;;;;5109735;27;20192;-50
2023/12/01 06:38:27;;;;;;;51.83;21.23;;;-3.90;99.90;;;;;;5114006;27;20235;-50
2023/12/01 06:40:53;;;;;;;44.27;19.80;;;-3.90;99.90;;;;;;5112788;27;20623;-50
2023/12/01 06:43:19;;;;;;;51.37;20.73;;;-4.00;99.90;;;;;;5112590;27;20274;-50
2023/12/01 06:45:44;;;;;;;46.17;20.90;;;-4.10;99.90;;;;;;5112429;27;20517;-49
2023/12/01 06:48:10;;;;;;;45.27;20.10;;;-4.00;99.90;;;;;;5115183;27;20222;-50
2023/12/01 06:50:36;;;;;;;45.37;19.97;;;-4.00;99.90;;;;;;5109321;27;20328;-50
2023/12/01 06:53:02;;;;;;;53.80;22.57;;;-4.10;99.90;;;;;;5110874;27;20553;-50
2023/12/01 06:55:28;;;;;;;50.07;21.43;;;-4.10;1.00;;;;;;5112778;27;20201;-51
2023/12/01 06:57:53;;;;;;;52.50;21.60;;;-4.10;1.00;;;;;;5106763;27;20222;-50
2023/12/01 07:02:57;;;;;;;54.63;22.33;;;-4.10;1.00;;;;;;5107052;27;20207;-51
2023/12/01 07:05:27;;;;;;;46.37;20.30;;;-4.10;71.20;;;;;;5104542;27;20471;-50
2023/12/01 07:07:53;;;;;;;50.40;20.73;;;-4.10;1.00;;;;;;5107248;27;20425;-50
2023/12/01 07:10:19;;;;;;;52.80;21.47;;;-4.10;1.00;;;;;;5108525;27;20438;-50
2023/12/01 07:12:45;;;;;;;52.27;21.60;;;-4.10;1.00;;;;;;5106532;27;20427;-49
2023/12/01 07:15:13;;;;;;;54.40;22.60;;;-4.10;1.00;;;;;;5111879;27;20470;-51
2023/12/01 07:17:40;;;;;;;50.63;20.83;;;-4.10;1.00;;;;;;5109549;27;20619;-51
2023/12/01 07:20:13;;;;;;;51.47;21.83;;;-4.10;1.00;;;;;;5109671;27;20428;-52
2023/12/01 07:22:43;;;;;;;54.20;21.43;;;-4.10;99.90;;;;;;5108421;27;20498;-52
2023/12/01 07:25:23;;;;;;;53.73;21.70;;;-4.10;99.90;;;;;;5104192;27;20435;-52
2023/12/01 07:27:50;;;;;;;50.87;20.60;;;-4.20;99.90;;;;;;5108640;27;20950;-52
2023/12/01 07:30:16;;;;;;;52.77;22.00;;;-4.10;1.00;;;;;;5109318;27;20444;-52
2023/12/01 07:32:46;;;;;;;53.43;22.57;;;-4.10;1.00;;;;;;5107038;27;20463;-52
2023/12/01 07:35:13;;;;;;;55.33;22.20;;;-4.10;99.90;;;;;;5108771;27;20438;-52
2023/12/01 07:37:42;;;;;;;53.20;21.27;;;-4.10;99.90;;;;;;5106176;27;20824;-53
2023/12/01 07:40:12;;;;;;;52.87;21.37;;;-4.10;99.90;;;;;;5103871;27;21003;-52
2023/12/01 07:42:39;;;;;;;51.10;20.03;;;-4.00;99.90;;;;;;5109800;27;20559;-51
2023/12/01 07:45:06;;;;;;;47.03;20.50;;;-4.00;99.90;;;;;;5113486;27;20425;-51
2023/12/01 07:47:31;;;;;;;51.30;21.27;;;-4.00;99.90;;;;;;5108546;27;20436;-52
2023/12/01 07:49:57;;;;;;;51.90;22.50;;;-3.90;99.90;;;;;;5116196;27;20741;-52
2023/12/01 07:52:23;;;;;;;49.13;21.40;;;-3.90;99.90;;;;;;5109812;27;20189;-51
2023/12/01 07:54:48;;;;;;;50.43;21.30;;;-3.90;99.90;;;;;;5113113;27;20479;-51
2023/12/01 07:57:14;;;;;;;53.40;21.90;;;-3.80;99.90;;;;;;5109846;27;20382;-52
2023/12/01 07:59:40;;;;;;;52.07;21.90;;;-3.80;99.90;;;;;;5109276;27;20677;-52
2023/12/01 08:02:06;;;;;;;51.53;21.40;;;-3.80;99.90;;;;;;5116422;27;20195;-51
2023/12/01 08:04:31;;;;;;;51.00;22.57;;;-3.70;99.90;;;;;;5108207;27;20193;-51
2023/12/01 08:06:57;;;;;;;66.27;24.73;;;-3.70;53.20;;;;;;5110524;28;20317;-52
2023/12/01 08:09:23;;;;;;;54.73;22.10;;;-3.60;1.00;;;;;;5109314;27;20186;-51
2023/12/01 08:11:50;;;;;;;50.97;23.13;;;-3.60;1.00;;;;;;5105417;27;20667;-52
2023/12/01 08:14:15;;;;;;;53.80;21.93;;;-3.60;99.90;;;;;;5109633;27;20453;-51
2023/12/01 08:16:42;;;;;;;51.80;21.67;;;-3.60;99.90;;;;;;5113005;27;20221;-51
2023/12/01 08:19:09;;;;;;;52.23;21.90;;;-3.50;99.90;;;;;;5114514;27;20274;-51
2023/12/01 08:21:36;;;;;;;48.37;21.67;;;-3.50;99.90;;;;;;5104746;27;20839;-52
2023/12/01 08:24:04;;;;;;;54.20;21.73;;;-3.40;99.90;;;;;;5094831;28;20802;-52
2023/12/01 08:26:30;;;;;;;54.00;22.07;;;-3.30;99.90;;;;;;5115562;27;20500;-53
2023/12/01 08:28:55;;;;;;;59.10;23.87;;;-3.30;1.00;;;;;;5112011;28;20428;-52
2023/12/01 08:31:21;;;;;;;54.47;22.47;;;-3.30;1.00;;;;;;5110115;28;20425;-52
2023/12/01 08:33:46;;;;;;;54.30;23.00;;;-3.30;1.00;;;;;;5110762;28;20192;-52
2023/12/01 08:36:12;;;;;;;56.40;21.90;;;-3.20;1.00;;;;;;5110327;28;20191;-52
2023/12/01 08:38:40;;;;;;;48.17;21.80;;;-3.10;1.00;;;;;;5108356;28;20224;-52
2023/12/01 08:41:06;;;;;;;48.20;22.50;;;-3.00;1.00;;;;;;5111431;28;20192;-52
2023/12/01 08:43:32;;;;;;;53.63;22.47;;;-3.00;99.90;;;;;;5108789;28;20445;-52
2023/12/01 08:45:57;;;;;;;48.87;21.30;;;-2.80;99.90;;;;;;5103028;28;20185;-52
2023/12/01 08:48:23;;;;;;;54.70;23.13;;;-2.70;99.90;;;;;;5109561;28;20196;-52
2023/12/01 08:50:48;;;;;;;53.87;23.37;;;-2.60;1.00;;;;;;5111014;28;20197;-52
2023/12/01 08:53:14;;;;;;;52.73;22.80;;;-2.60;1.00;;;;;;5110782;28;20225;-52
2023/12/01 08:55:39;;;;;;;50.20;21.53;;;-2.60;1.00;;;;;;5115986;28;20194;-52
2023/12/01 08:58:05;;;;;;;53.40;24.00;;;-2.60;1.00;;;;;;5110021;28;20577;-52
2023/12/01 09:00:30;;;;;;;45.80;21.37;;;-2.60;1.00;;;;;;5102681;28;20552;-52
2023/12/01 09:02:57;;;;;;;53.53;24.30;;;-2.50;1.00;;;;;;5109039;28;20192;-52
2023/12/01 09:05:24;;;;;;;48.97;21.30;;;-2.40;1.00;;;;;;5105146;28;20753;-52
2023/12/01 09:07:50;;;;;;;49.33;22.90;;;-2.30;1.00;;;;;;5109089;28;20448;-53
2023/12/01 09:10:16;;;;;;;45.63;21.30;;;-2.10;1.00;;;;;;5109221;28;20475;-52
2023/12/01 09:12:43;;;;;;;48.90;21.87;;;-2.00;99.90;;;;;;5108684;28;20435;-52
2023/12/01 09:15:10;;;;;;;49.53;22.27;;;-1.80;99.90;;;;;;5109613;28;20536;-53
2023/12/01 09:17:36;;;;;;;44.83;21.03;;;-1.60;99.90;;;;;;5107484;28;20983;-52
2023/12/01 09:20:01;;;;;;;40.60;19.53;;;-1.60;99.90;;;;;;5110197;28;20459;-52
2023/12/01 09:22:27;;;;;;;48.97;22.33;;;-1.40;99.90;;;;;;5106850;28;20193;-52
2023/12/01 09:24:52;;;;;;;48.53;21.03;;;-1.30;99.90;;;;;;5109381;28;20198;-52
2023/12/01 09:27:19;;;;;;;45.57;20.87;;;-1.30;99.90;;;;;;5108499;28;20188;-52
2023/12/01 09:29:45;;;;;;;45.90;21.43;;;-1.50;99.90;;;;;;5108069;28;20189;-52
2023/12/01 09:32:10;;;;;;;47.03;20.00;;;-1.50;99.90;;;;;;5108689;28;20427;-52
2023/12/01 09:34:36;;;;;;;42.70;19.80;;;-1.50;99.90;;;;;;5114942;28;20196;-52
2023/12/01 09:37:01;;;;;;;40.27;20.53;;;-1.60;99.90;;;;;;5108817;28;20192;-51
2023/12/01 09:39:27;;;;;;;44.40;20.77;;;-1.60;99.90;;;;;;5107740;28;20226;-51
2023/12/01 09:41:54;;;;;;;42.13;20.97;;;-1.60;99.90;;;;;;5112588;28;20201;-51
2023/12/01 09:44:20;;;;;;;42.53;21.30;;;-1.60;99.90;;;;;;5109087;27;20191;-52
2023/12/01 09:46:48;;;;;;;44.50;23.20;;;-1.60;99.90;;;;;;5113364;27;20447;-51
2023/12/01 09:49:14;;;;;;;47.20;22.30;;;-1.50;99.90;;;;;;5111562;27;20189;-51
2023/12/01 09:51:40;;;;;;;43.30;20.83;;;-1.50;99.90;;;;;;5111524;27;20431;-52
2023/12/01 09:54:05;;;;;;;40.40;20.13;;;-1.50;99.90;;;;;;5113150;27;20191;-51
2023/12/01 09:56:31;;;;;;;46.87;22.80;;;-1.40;99.90;;;;;;5115635;27;20280;-51
2023/12/01 09:58:57;;;;;;;46.00;21.77;;;-1.30;99.90;;;;;;5112681;27;20210;-51
2023/12/01 10:01:24;;;;;;;42.10;20.70;;;-1.10;99.90;;;;;;5113852;27;20865;-51
2023/12/01 10:03:49;;;;;;;43.73;20.83;;;-1.00;99.90;;;;;;5115724;27;20269;-51
2023/12/01 10:06:16;;;;;;;45.00;20.83;;;-0.80;99.90;;;;;;5112532;27;20500;-52
2023/12/01 10:08:41;;;;;;;42.97;20.70;;;-0.50;99.90;;;;;;5108592;27;20188;-52
2023/12/01 10:11:24;;;;;;;44.73;20.57;;;-0.30;99.90;;;;;;5111488;27;20479;-51
2023/12/01 10:13:51;;;;;;;37.20;19.20;;;-0.30;57.00;;;;;;5113477;27;20217;-52
2023/12/01 10:16:17;;;;;;;36.70;18.77;;;-0.40;43.20;;;;;;5115136;27;20826;-51
2023/12/01 10:18:59;;;;;;;43.53;20.30;;;-0.40;54.80;;;;;;5110497;27;20481;-51
2023/12/01 10:21:46;;;;;;;41.27;21.40;;;-0.30;63.30;;;;;;5109072;27;20789;-50
2023/12/01 10:24:16;;;;;;;40.93;19.57;;;-0.10;76.00;;;;;;5112084;27;20779;-51
2023/12/01 10:26:43;;;;;;;39.17;19.03;;;0.00;57.30;;;;;;5108326;27;20458;-52
2023/12/01 10:29:32;;;;;;;37.40;19.03;;;0.20;65.90;;;;;;5111548;27;20795;-52
2023/12/01 10:32:03;;;;;;;36.77;18.30;;;0.70;56.20;;;;;;5113230;27;20478;-53
2023/12/01 10:34:29;;;;;;;36.27;17.47;;;1.70;31.90;;;;;;5108327;27;20438;-52
2023/12/01 10:36:55;;;;;;;34.43;18.33;;;2.70;1.00;;;;;;5115313;27;20437;-52
2023/12/01 10:39:27;;;;;;;32.13;17.23;;;3.50;1.00;;;;;;5113700;27;20823;-52
2023/12/01 10:41:53;;;;;;;29.50;16.33;;;4.70;1.00;;;;;;5118042;27;20481;-52
2023/12/01 10:44:25;;;;;;;31.40;16.20;;;6.40;1.00;;;;;;5113916;27;20461;-52
2023/12/01 10:46:52;;;;;;;23.10;13.90;;;8.00;1.00;;;;;;5112974;27;20421;-53
2023/12/01 10:49:18;;;;;;;20.97;13.50;;;9.40;1.00;;;;;;5108831;27;21468;-53
2023/12/01 10:51:45;;;;;;;23.67;14.20;;;10.20;1.00;;;;;;5114550;27;20498;-52
2023/12/01 10:54:12;;;;;;;22.87;13.63;;;10.60;1.00;;;;;;5111027;27;20525;-53
2023/12/01 10:57:12;;;;;;;23.23;14.20;;;11.20;1.00;;;;;;5109339;27;20918;-52
2023/12/01 10:59:38;;;;;;;26.60;13.70;;;12.10;1.00;;;;;;5091887;27;20455;-53
2023/12/01 11:02:05;;;;;;;21.77;13.43;;;12.90;1.00;;;;;;5114814;27;20430;-53
2023/12/01 11:04:32;;;;;;;20.80;13.10;;;13.10;1.00;;;;;;5110805;27;20197;-53
2023/12/01 11:07:23;;;;;;;18.57;11.87;;;11.80;1.00;;;;;;5107545;27;20825;-53
2023/12/01 11:10:00;;;;;;;17.10;10.63;;;9.80;1.00;;;;;;5110286;27;20419;-52
2023/12/01 11:12:54;;;;;;;20.87;12.50;;;8.60;1.00;;;;;;5111182;27;20442;-53
2023/12/01 11:15:24;;;;;;;19.00;12.10;;;8.10;1.00;;;;;;5110975;27;20426;-52
2023/12/01 11:17:50;;;;;;;20.17;12.93;;;8.00;1.00;;;;;;5109370;27;20535;-53
2023/12/01 11:20:36;;;;;;;20.47;12.20;;;7.70;1.00;;;;;;5110939;27;20434;-52
2023/12/01 11:23:11;;;;;;;18.17;11.50;;;7.70;1.00;;;;;;5111960;27;20462;-53
2023/12/01 11:25:53;;;;;;;18.40;11.67;;;7.90;1.00;;;;;;5114305;27;20434;-52
2023/12/01 11:28:27;;;;;;;18.63;12.10;;;8.10;1.00;;;;;;5109753;27;20434;-52
2023/12/01 11:31:08;;;;;;;21.30;13.00;;;8.40;1.00;;;;;;5107292;27;20438;-52
2023/12/01 11:33:37;;;;;;;21.90;12.63;;;8.40;1.00;;;;;;5109906;27;20444;-53
2023/12/01 11:36:23;;;;;;;21.03;12.00;;;7.80;1.00;;;;;;5109281;27;20456;-52
2023/12/01 11:41:41;;;;;;;19.37;10.87;;;6.60;1.00;;;;;;5107818;27;20956;-53
2023/12/01 11:44:18;;;;;;;16.27;10.63;;;6.10;1.00;;;;;;5108202;27;20434;-52
2023/12/01 11:46:47;;;;;;;20.90;12.77;;;5.80;1.00;;;;;;5114016;27;20195;-52
2023/12/01 11:49:14;;;;;;;22.07;13.07;;;5.90;1.00;;;;;;5108850;27;20460;-53
2023/12/01 11:51:43;;;;;;;20.77;12.47;;;6.50;1.00;;;;;;5113217;27;20425;-53
2023/12/01 11:54:11;;;;;;;20.23;13.10;;;7.20;1.00;;;;;;5110338;27;20435;-53
2023/12/01 11:56:37;;;;;;;20.10;12.20;;;8.00;1.00;;;;;;5112548;27;20434;-53
2023/12/01 11:59:02;;;;;;;20.30;11.93;;;8.40;1.00;;;;;;5113419;27;20536;-53
2023/12/01 12:01:30;;;;;;;20.37;11.70;;;8.60;1.00;;;;;;5090862;28;20788;-53
2023/12/01 12:03:56;;;;;;;17.40;11.20;;;8.70;1.00;;;;;;5114126;27;20520;-53
2023/12/01 12:06:23;;;;;;;16.90;10.83;;;9.20;1.00;;;;;;5108457;27;20815;-53
2023/12/01 12:08:53;;;;;;;17.97;11.23;;;10.10;1.00;;;;;;5106371;27;20418;-53
2023/12/01 12:11:19;;;;;;;15.93;10.67;;;11.10;1.00;;;;;;5112142;27;20821;-53
2023/12/01 12:13:53;;;;;;;14.40;9.60;;;12.10;1.00;;;;;;5102277;27;20436;-53
2023/12/01 12:16:20;;;;;;;15.47;9.83;;;12.60;1.00;;;;;;5108871;27;20422;-53
2023/12/01 12:18:48;;;;;;;13.07;9.20;;;13.60;1.00;;;;;;5110434;27;20482;-53
2023/12/01 12:21:14;;;;;;;12.87;9.00;;;14.10;1.00;;;;;;5112330;27;20768;-53
2023/12/01 12:23:40;;;;;;;14.70;10.03;;;14.60;1.00;;;;;;5109915;27;20439;-53
2023/12/01 12:26:16;;;;;;;15.10;11.00;;;15.30;1.00;;;;;;5109250;28;20185;-53
2023/12/01 12:28:43;;;;;;;18.70;10.90;;;16.00;1.00;;;;;;5113870;27;20183;-53
2023/12/01 12:31:09;;;;;;;18.33;10.10;;;16.70;1.00;;;;;;5090359;28;20836;-53
2023/12/01 12:33:35;;;;;;;16.40;11.00;;;17.20;1.00;;;;;;5108946;28;20429;-53
2023/12/01 12:36:02;;;;;;;21.03;10.40;;;17.90;1.00;;;;;;5112676;28;20483;-53
2023/12/01 12:38:27;;;;;;;14.10;9.87;;;18.10;1.00;;;;;;5112567;28;20564;-53
2023/12/01 12:40:53;;;;;;;15.60;9.97;;;18.80;1.00;;;;;;5115545;28;22515;-53